Bruce, Wisconsin
Current Conditions -  °F | °C
As of 12:35 PM on Saturday 25 Oct 2014 (Local Time) from KRCX Reporting Station
Clear Clear  
Wind Chill: 14°   Ceiling: Unl
Heat Index: 14°   Visibility: 10mi
Dew Point:   Wind: 21mph
Humidity: 37%   Direction: 300°WNW
Pressure: 29.97"   Gusts: NA
Location:  45.46°N, 91.27°W
Report Text: KRCX 251735Z AUTO 30018KT 10SM CLR 14/00 A2997 RMK AO2 T01401004
Loading
Personal Weather Stations






























Interactive Weather Map
Tropical Storm Tracking
New forecast layout! Learn more

10-Day Weather Forecast

Advertisements
Track Severe Weather on mobile